sim
Sign-in with your pilot id or email,
or register
Callsign
Passwort

Schedule Details

Flight Number: RYR9422 (2)
Departure: Pisa Galileo Galilei Airport (LIRP) at 12:50
Arrival: Fuerteventura Airport (GCFV) at 17:05
Route: Ryanair Passenger Schedule. Enter filed route here before submitting Pirep.

Weather Information
Getting current METAR information for LIRP 160245Z 02003KT CAVOK 07/M01 Q1030 NOSIG
Getting current METAR information for GCFV 160230Z AUTO 28005KT 9999 NCD 13/10 Q1018

Schedule Frequency

Route Map